sensor_id;sensor_type;location;lat;lon;timestamp;pressure;altitude;pressure_sealevel;temperature;humidity
58243;BME280;50118;53.232;8.252;2023-07-08T00:00:24;101964.88;;;13.64;100.00
58243;BME280;50118;53.232;8.252;2023-07-08T00:02:50;101959.53;;;13.64;100.00
58243;BME280;50118;53.232;8.252;2023-07-08T00:05:17;101957.25;;;13.60;100.00
58243;BME280;50118;53.232;8.252;2023-07-08T00:07:43;101957.81;;;13.54;100.00
58243;BME280;50118;53.232;8.252;2023-07-08T00:10:19;101952.13;;;13.47;100.00
58243;BME280;50118;53.232;8.252;2023-07-08T00:12:48;101959.59;;;13.43;100.00
58243;BME280;50118;53.232;8.252;2023-07-08T00:15:15;101960.28;;;13.45;100.00
58243;BME280;50118;53.232;8.252;2023-07-08T00:17:41;101954.31;;;13.32;100.00
58243;BME280;50118;53.232;8.252;2023-07-08T00:20:19;101944.84;;;13.28;100.00
58243;BME280;50118;53.232;8.252;2023-07-08T00:22:45;101945.38;;;13.22;100.00
58243;BME280;50118;53.232;8.252;2023-07-08T00:25:13;101952.69;;;13.20;100.00
58243;BME280;50118;53.232;8.252;2023-07-08T00:27:42;101949.75;;;13.23;100.00
58243;BME280;50118;53.232;8.252;2023-07-08T00:32:45;101954.47;;;13.10;100.00
58243;BME280;50118;53.232;8.252;2023-07-08T00:35:11;101944.03;;;13.06;100.00
58243;BME280;50118;53.232;8.252;2023-07-08T00:37:36;101948.78;;;13.03;100.00
58243;BME280;50118;53.232;8.252;2023-07-08T00:40:16;101944.53;;;13.00;100.00
58243;BME280;50118;53.232;8.252;2023-07-08T00:42:44;101942.56;;;13.02;100.00
58243;BME280;50118;53.232;8.252;2023-07-08T00:48:30;101943.13;;;12.96;100.00
58243;BME280;50118;53.232;8.252;2023-07-08T00:50:58;101942.41;;;12.94;100.00
58243;BME280;50118;53.232;8.252;2023-07-08T00:53:33;101950.09;;;12.87;100.00
58243;BME280;50118;53.232;8.252;2023-07-08T00:56:04;101942.47;;;12.83;100.00
58243;BME280;50118;53.232;8.252;2023-07-08T00:58:41;101937.44;;;12.89;100.00
58243;BME280;50118;53.232;8.252;2023-07-08T01:01:07;101943.38;;;12.93;100.00
58243;BME280;50118;53.232;8.252;2023-07-08T01:03:42;101944.69;;;12.78;100.00
58243;BME280;50118;53.232;8.252;2023-07-08T01:06:11;101937.75;;;12.75;100.00
58243;BME280;50118;53.232;8.252;2023-07-08T01:08:36;101937.50;;;12.78;100.00
58243;BME280;50118;53.232;8.252;2023-07-08T01:11:04;101934.25;;;12.75;100.00
58243;BME280;50118;53.232;8.252;2023-07-08T01:13:34;101944.69;;;12.78;100.00
58243;BME280;50118;53.232;8.252;2023-07-08T01:16:00;101933.28;;;12.76;100.00
58243;BME280;50118;53.232;8.252;2023-07-08T01:18:27;101933.78;;;12.69;100.00
58243;BME280;50118;53.232;8.252;2023-07-08T01:20:53;101927.84;;;12.66;100.00
58243;BME280;50118;53.232;8.252;2023-07-08T01:23:20;101928.97;;;12.63;100.00
58243;BME280;50118;53.232;8.252;2023-07-08T01:25:46;101936.00;;;12.64;100.00
58243;BME280;50118;53.232;8.252;2023-07-08T01:28:13;101929.94;;;12.62;100.00
58243;BME280;50118;53.232;8.252;2023-07-08T01:30:41;101929.94;;;12.62;100.00
58243;BME280;50118;53.232;8.252;2023-07-08T01:33:16;101918.66;;;12.59;100.00
58243;BME280;50118;53.232;8.252;2023-07-08T01:35:43;101917.81;;;12.58;100.00
58243;BME280;50118;53.232;8.252;2023-07-08T01:38:11;101922.16;;;12.59;100.00
58243;BME280;50118;53.232;8.252;2023-07-08T01:40:38;101912.72;;;12.55;100.00
58243;BME280;50118;53.232;8.252;2023-07-08T01:43:05;101911.88;;;12.55;100.00
58243;BME280;50118;53.232;8.252;2023-07-08T01:45:34;101915.53;;;12.54;100.00
58243;BME280;50118;53.232;8.252;2023-07-08T01:48:14;101911.81;;;12.45;100.00
58243;BME280;50118;53.232;8.252;2023-07-08T01:50:47;101908.16;;;12.46;100.00
58243;BME280;50118;53.232;8.252;2023-07-08T01:53:16;101909.00;;;12.46;100.00
58243;BME280;50118;53.232;8.252;2023-07-08T01:55:42;101905.34;;;12.47;100.00
58243;BME280;50118;53.232;8.252;2023-07-08T01:58:07;101908.41;;;12.43;100.00
58243;BME280;50118;53.232;8.252;2023-07-08T02:00:33;101905.25;;;12.38;100.00
58243;BME280;50118;53.232;8.252;2023-07-08T02:02:58;101907.81;;;12.39;100.00
58243;BME280;50118;53.232;8.252;2023-07-08T02:05:23;101915.94;;;12.38;100.00
58243;BME280;50118;53.232;8.252;2023-07-08T02:07:49;101902.66;;;12.26;100.00
58243;BME280;50118;53.232;8.252;2023-07-08T02:10:14;101905.78;;;12.31;100.00
58243;BME280;50118;53.232;8.252;2023-07-08T02:12:40;101904.09;;;12.30;100.00
58243;BME280;50118;53.232;8.252;2023-07-08T02:15:06;101903.25;;;12.30;100.00
58243;BME280;50118;53.232;8.252;2023-07-08T02:17:31;101903.00;;;12.33;100.00
58243;BME280;50118;53.232;8.252;2023-07-08T02:19:57;101903.59;;;12.37;100.00
58243;BME280;50118;53.232;8.252;2023-07-08T02:22:23;101903.34;;;12.40;100.00
58243;BME280;50118;53.232;8.252;2023-07-08T02:24:48;101886.19;;;12.42;100.00
58243;BME280;50118;53.232;8.252;2023-07-08T02:27:14;101900.53;;;12.41;100.00
58243;BME280;50118;53.232;8.252;2023-07-08T02:29:40;101892.81;;;12.48;100.00
58243;BME280;50118;53.232;8.252;2023-07-08T02:32:06;101897.59;;;12.44;100.00
58243;BME280;50118;53.232;8.252;2023-07-08T02:34:32;101893.56;;;12.50;100.00
58243;BME280;50118;53.232;8.252;2023-07-08T02:36:57;101897.59;;;12.65;100.00
58243;BME280;50118;53.232;8.252;2023-07-08T02:39:23;101895.97;;;12.74;100.00
58243;BME280;50118;53.232;8.252;2023-07-08T02:41:49;101890.94;;;12.81;100.00
58243;BME280;50118;53.232;8.252;2023-07-08T02:44:14;101904.50;;;12.89;100.00
58243;BME280;50118;53.232;8.252;2023-07-08T02:46:40;101893.94;;;12.87;100.00
58243;BME280;50118;53.232;8.252;2023-07-08T02:49:05;101900.38;;;12.85;100.00
58243;BME280;50118;53.232;8.252;2023-07-08T02:51:31;101898.97;;;12.81;100.00
58243;BME280;50118;53.232;8.252;2023-07-08T02:53:56;101899.69;;;12.83;100.00
58243;BME280;50118;53.232;8.252;2023-07-08T02:56:22;101893.16;;;12.76;100.00
58243;BME280;50118;53.232;8.252;2023-07-08T02:58:48;101889.63;;;12.75;100.00
58243;BME280;50118;53.232;8.252;2023-07-08T03:01:14;101888.09;;;12.73;100.00
58243;BME280;50118;53.232;8.252;2023-07-08T03:03:47;101887.63;;;12.67;100.00
58243;BME280;50118;53.232;8.252;2023-07-08T03:06:13;101886.03;;;12.65;100.00
58243;BME280;50118;53.232;8.252;2023-07-08T03:08:39;101885.41;;;12.73;100.00
58243;BME280;50118;53.232;8.252;2023-07-08T03:11:05;101880.56;;;12.66;100.00
58243;BME280;50118;53.232;8.252;2023-07-08T03:13:32;101880.88;;;12.63;100.00
58243;BME280;50118;53.232;8.252;2023-07-08T03:15:59;101878.31;;;12.62;100.00
58243;BME280;50118;53.232;8.252;2023-07-08T03:18:26;101889.34;;;12.68;100.00
58243;BME280;50118;53.232;8.252;2023-07-08T03:20:52;101883.69;;;12.71;100.00
58243;BME280;50118;53.232;8.252;2023-07-08T03:23:18;101881.03;;;12.71;100.00
58243;BME280;50118;53.232;8.252;2023-07-08T03:25:44;101868.91;;;12.67;100.00
58243;BME280;50118;53.232;8.252;2023-07-08T03:28:10;101872.56;;;12.66;100.00
58243;BME280;50118;53.232;8.252;2023-07-08T03:30:43;101873.44;;;12.67;100.00
58243;BME280;50118;53.232;8.252;2023-07-08T03:33:10;101871.78;;;12.76;100.00
58243;BME280;50118;53.232;8.252;2023-07-08T03:35:36;101869.56;;;12.81;100.00
58243;BME280;50118;53.232;8.252;2023-07-08T03:38:02;101872.69;;;12.86;100.00
58243;BME280;50118;53.232;8.252;2023-07-08T03:40:28;101873.38;;;12.88;100.00
58243;BME280;50118;53.232;8.252;2023-07-08T03:42:53;101870.41;;;12.81;100.00
58243;BME280;50118;53.232;8.252;2023-07-08T03:45:19;101879.09;;;12.74;100.00
58243;BME280;50118;53.232;8.252;2023-07-08T03:47:44;101876.25;;;12.75;100.00
58243;BME280;50118;53.232;8.252;2023-07-08T03:50:18;101876.88;;;12.79;100.00
58243;BME280;50118;53.232;8.252;2023-07-08T03:52:45;101881.66;;;12.85;100.00
58243;BME280;50118;53.232;8.252;2023-07-08T03:55:11;101881.03;;;12.93;100.00
58243;BME280;50118;53.232;8.252;2023-07-08T03:57:37;101880.09;;;13.03;100.00
58243;BME280;50118;53.232;8.252;2023-07-08T04:00:03;101873.06;;;13.12;100.00
58243;BME280;50118;53.232;8.252;2023-07-08T04:02:28;101866.94;;;13.21;100.00
58243;BME280;50118;53.232;8.252;2023-07-08T04:04:54;101868.78;;;13.31;100.00
58243;BME280;50118;53.232;8.252;2023-07-08T04:07:19;101870.97;;;13.47;100.00
58243;BME280;50118;53.232;8.252;2023-07-08T04:09:45;101874.38;;;13.58;100.00
58243;BME280;50118;53.232;8.252;2023-07-08T04:12:15;101860.31;;;13.66;100.00
58243;BME280;50118;53.232;8.252;2023-07-08T04:14:40;101863.16;;;13.74;100.00
58243;BME280;50118;53.232;8.252;2023-07-08T04:17:08;101859.53;;;14.05;100.00
58243;BME280;50118;53.232;8.252;2023-07-08T04:19:34;101857.66;;;14.64;100.00
58243;BME280;50118;53.232;8.252;2023-07-08T04:22:01;101859.81;;;15.25;100.00
58243;BME280;50118;53.232;8.252;2023-07-08T04:24:27;101863.59;;;16.06;100.00
58243;BME280;50118;53.232;8.252;2023-07-08T04:26:53;101859.56;;;16.72;96.68
58243;BME280;50118;53.232;8.252;2023-07-08T04:29:21;101865.81;;;17.33;90.10
58243;BME280;50118;53.232;8.252;2023-07-08T04:31:48;101873.59;;;18.12;85.35
58243;BME280;50118;53.232;8.252;2023-07-08T04:34:14;101861.47;;;18.24;81.29
58243;BME280;50118;53.232;8.252;2023-07-08T04:36:40;101859.41;;;18.84;80.86
58243;BME280;50118;53.232;8.252;2023-07-08T04:39:07;101859.19;;;19.41;75.23
58243;BME280;50118;53.232;8.252;2023-07-08T04:41:33;101864.09;;;19.77;72.85
58243;BME280;50118;53.232;8.252;2023-07-08T04:43:59;101863.69;;;19.89;73.31
58243;BME280;50118;53.232;8.252;2023-07-08T04:46:33;101858.06;;;20.13;70.17
58243;BME280;50118;53.232;8.252;2023-07-08T04:49:03;101861.13;;;20.10;68.99
58243;BME280;50118;53.232;8.252;2023-07-08T04:51:29;101866.38;;;19.89;71.51
58243;BME280;50118;53.232;8.252;2023-07-08T04:53:54;101866.63;;;20.63;66.54
58243;BME280;50118;53.232;8.252;2023-07-08T04:56:20;101871.81;;;21.03;66.55
58243;BME280;50118;53.232;8.252;2023-07-08T04:58:45;101869.81;;;20.97;66.14
58243;BME280;50118;53.232;8.252;2023-07-08T05:01:11;101870.84;;;21.77;63.30
58243;BME280;50118;53.232;8.252;2023-07-08T05:03:36;101866.34;;;22.27;60.83
58243;BME280;50118;53.232;8.252;2023-07-08T05:06:02;101862.81;;;21.69;63.62
58243;BME280;50118;53.232;8.252;2023-07-08T05:08:27;101871.28;;;21.44;63.91
58243;BME280;50118;53.232;8.252;2023-07-08T05:10:52;101862.25;;;21.37;64.47
58243;BME280;50118;53.232;8.252;2023-07-08T05:13:18;101870.53;;;21.87;64.52
58243;BME280;50118;53.232;8.252;2023-07-08T05:15:43;101869.44;;;22.02;62.58
58243;BME280;50118;53.232;8.252;2023-07-08T05:18:09;101859.44;;;23.09;59.08
58243;BME280;50118;53.232;8.252;2023-07-08T05:20:34;101865.47;;;23.60;56.94
58243;BME280;50118;53.232;8.252;2023-07-08T05:23:02;101856.19;;;24.09;55.22
58243;BME280;50118;53.232;8.252;2023-07-08T05:25:31;101860.75;;;23.82;56.72
58243;BME280;50118;53.232;8.252;2023-07-08T05:27:56;101873.38;;;24.56;54.48
58243;BME280;50118;53.232;8.252;2023-07-08T05:30:22;101873.34;;;24.83;52.66
58243;BME280;50118;53.232;8.252;2023-07-08T05:32:47;101865.91;;;25.30;50.83
58243;BME280;50118;53.232;8.252;2023-07-08T05:35:13;101868.81;;;25.35;51.39
58243;BME280;50118;53.232;8.252;2023-07-08T05:37:38;101870.75;;;25.22;52.99
58243;BME280;50118;53.232;8.252;2023-07-08T05:40:06;101862.69;;;24.01;55.60
58243;BME280;50118;53.232;8.252;2023-07-08T05:42:32;101864.22;;;25.16;51.28
58243;BME280;50118;53.232;8.252;2023-07-08T05:44:57;101853.06;;;24.26;54.07
58243;BME280;50118;53.232;8.252;2023-07-08T05:47:23;101854.91;;;24.72;53.52
58243;BME280;50118;53.232;8.252;2023-07-08T05:49:48;101858.91;;;24.16;55.95
58243;BME280;50118;53.232;8.252;2023-07-08T05:52:14;101853.47;;;23.34;58.44
58243;BME280;50118;53.232;8.252;2023-07-08T05:54:41;101860.88;;;25.27;52.04
58243;BME280;50118;53.232;8.252;2023-07-08T05:57:08;101868.00;;;25.22;52.60
58243;BME280;50118;53.232;8.252;2023-07-08T05:59:35;101868.19;;;23.60;56.93
58243;BME280;50118;53.232;8.252;2023-07-08T06:02:02;101861.22;;;24.72;55.78
58243;BME280;50118;53.232;8.252;2023-07-08T06:04:28;101864.91;;;25.63;52.85
58243;BME280;50118;53.232;8.252;2023-07-08T06:06:53;101867.97;;;25.28;53.68
58243;BME280;50118;53.232;8.252;2023-07-08T06:09:19;101869.25;;;25.32;53.49
58243;BME280;50118;53.232;8.252;2023-07-08T06:11:44;101866.16;;;25.61;52.09
58243;BME280;50118;53.232;8.252;2023-07-08T06:14:09;101865.31;;;26.74;47.91
58243;BME280;50118;53.232;8.252;2023-07-08T06:16:35;101863.41;;;25.29;52.71
58243;BME280;50118;53.232;8.252;2023-07-08T06:19:00;101867.91;;;26.19;49.00
58243;BME280;50118;53.232;8.252;2023-07-08T06:21:26;101865.47;;;26.11;49.26
58243;BME280;50118;53.232;8.252;2023-07-08T06:23:51;101861.16;;;25.58;50.94
58243;BME280;50118;53.232;8.252;2023-07-08T06:26:17;101858.31;;;24.60;53.93
58243;BME280;50118;53.232;8.252;2023-07-08T06:28:42;101861.25;;;25.38;52.48
58243;BME280;50118;53.232;8.252;2023-07-08T06:31:07;101846.47;;;25.52;49.54
58243;BME280;50118;53.232;8.252;2023-07-08T06:33:33;101857.59;;;25.96;49.36
58243;BME280;50118;53.232;8.252;2023-07-08T06:35:58;101855.78;;;26.58;48.22
58243;BME280;50118;53.232;8.252;2023-07-08T06:38:24;101851.75;;;27.42;44.57
58243;BME280;50118;53.232;8.252;2023-07-08T06:40:49;101867.78;;;27.19;46.54
58243;BME280;50118;53.232;8.252;2023-07-08T06:43:14;101849.84;;;28.50;42.52
58243;BME280;50118;53.232;8.252;2023-07-08T06:45:40;101852.84;;;26.09;48.04
58243;BME280;50118;53.232;8.252;2023-07-08T06:48:06;101845.66;;;26.15;48.71
58243;BME280;50118;53.232;8.252;2023-07-08T06:50:31;101846.06;;;27.06;45.51
58243;BME280;50118;53.232;8.252;2023-07-08T06:52:57;101836.25;;;28.08;43.69
58243;BME280;50118;53.232;8.252;2023-07-08T06:55:23;101838.78;;;28.68;42.78
58243;BME280;50118;53.232;8.252;2023-07-08T06:57:48;101844.00;;;26.58;48.37
58243;BME280;50118;53.232;8.252;2023-07-08T07:00:14;101840.53;;;25.68;49.01
58243;BME280;50118;53.232;8.252;2023-07-08T07:02:39;101841.38;;;25.62;49.25
58243;BME280;50118;53.232;8.252;2023-07-08T07:05:05;101845.75;;;26.96;45.35
58243;BME280;50118;53.232;8.252;2023-07-08T07:07:30;101846.06;;;27.06;44.30
58243;BME280;50118;53.232;8.252;2023-07-08T07:09:56;101839.03;;;26.04;47.39
58243;BME280;50118;53.232;8.252;2023-07-08T07:12:24;101833.38;;;25.67;49.86
58243;BME280;50118;53.232;8.252;2023-07-08T07:14:50;101832.63;;;26.86;46.18
58243;BME280;50118;53.232;8.252;2023-07-08T07:17:18;101837.22;;;27.41;45.89
58243;BME280;50118;53.232;8.252;2023-07-08T07:19:44;101845.91;;;27.80;47.49
58243;BME280;50118;53.232;8.252;2023-07-08T07:22:10;101825.56;;;28.18;43.37
58243;BME280;50118;53.232;8.252;2023-07-08T07:24:35;101836.97;;;27.73;44.25
58243;BME280;50118;53.232;8.252;2023-07-08T07:27:00;101829.94;;;27.35;46.14
58243;BME280;50118;53.232;8.252;2023-07-08T07:29:26;101833.28;;;28.45;43.87
58243;BME280;50118;53.232;8.252;2023-07-08T07:31:51;101831.16;;;28.47;42.61
58243;BME280;50118;53.232;8.252;2023-07-08T07:34:17;101835.56;;;26.84;45.99
58243;BME280;50118;53.232;8.252;2023-07-08T07:36:42;101824.03;;;27.19;48.67
58243;BME280;50118;53.232;8.252;2023-07-08T07:39:08;101830.69;;;27.42;47.72
58243;BME280;50118;53.232;8.252;2023-07-08T07:41:33;101830.25;;;27.87;45.47
58243;BME280;50118;53.232;8.252;2023-07-08T07:43:58;101821.28;;;27.38;47.02
58243;BME280;50118;53.232;8.252;2023-07-08T07:46:24;101818.50;;;27.99;44.05
58243;BME280;50118;53.232;8.252;2023-07-08T07:48:49;101818.34;;;27.51;45.42
58243;BME280;50118;53.232;8.252;2023-07-08T07:51:15;101812.97;;;26.96;46.47
58243;BME280;50118;53.232;8.252;2023-07-08T07:53:41;101812.44;;;27.97;46.07
58243;BME280;50118;53.232;8.252;2023-07-08T07:56:07;101824.22;;;27.67;44.65
58243;BME280;50118;53.232;8.252;2023-07-08T07:58:33;101818.50;;;27.99;44.08
58243;BME280;50118;53.232;8.252;2023-07-08T08:00:59;101818.03;;;27.71;45.21
58243;BME280;50118;53.232;8.252;2023-07-08T08:03:24;101818.47;;;27.56;45.92
58243;BME280;50118;53.232;8.252;2023-07-08T08:05:50;101812.31;;;27.12;47.46
58243;BME280;50118;53.232;8.252;2023-07-08T08:08:15;101827.47;;;27.75;46.01
58243;BME280;50118;53.232;8.252;2023-07-08T08:10:44;101818.78;;;28.56;44.36
58243;BME280;50118;53.232;8.252;2023-07-08T08:13:10;101817.44;;;28.71;46.32
58243;BME280;50118;53.232;8.252;2023-07-08T08:15:36;101816.38;;;28.24;44.79
58243;BME280;50118;53.232;8.252;2023-07-08T08:18:02;101815.31;;;28.73;45.37
58243;BME280;50118;53.232;8.252;2023-07-08T08:20:29;101816.56;;;27.45;49.48
58243;BME280;50118;53.232;8.252;2023-07-08T08:22:54;101814.75;;;27.81;48.75
58243;BME280;50118;53.232;8.252;2023-07-08T08:25:21;101815.28;;;28.02;44.39
58243;BME280;50118;53.232;8.252;2023-07-08T08:27:47;101825.91;;;27.68;44.26
58243;BME280;50118;53.232;8.252;2023-07-08T08:30:12;101817.56;;;28.05;42.52
58243;BME280;50118;53.232;8.252;2023-07-08T08:32:38;101821.44;;;29.03;40.65
58243;BME280;50118;53.232;8.252;2023-07-08T08:35:04;101820.84;;;29.42;40.42
58243;BME280;50118;53.232;8.252;2023-07-08T08:37:30;101824.25;;;29.32;40.04
58243;BME280;50118;53.232;8.252;2023-07-08T08:39:55;101817.16;;;29.65;40.73
58243;BME280;50118;53.232;8.252;2023-07-08T08:45:05;101831.56;;;30.96;38.80
58243;BME280;50118;53.232;8.252;2023-07-08T08:47:40;101815.94;;;29.90;39.73
58243;BME280;50118;53.232;8.252;2023-07-08T08:52:40;101813.13;;;30.97;37.11
58243;BME280;50118;53.232;8.252;2023-07-08T08:55:13;101814.25;;;31.45;35.69
58243;BME280;50118;53.232;8.252;2023-07-08T08:58:32;101813.44;;;31.22;36.06
58243;BME280;50118;53.232;8.252;2023-07-08T09:05:49;101808.34;;;31.63;35.79
58243;BME280;50118;53.232;8.252;2023-07-08T09:08:29;101800.66;;;31.93;34.89
58243;BME280;50118;53.232;8.252;2023-07-08T09:11:00;101805.03;;;30.68;36.98
58243;BME280;50118;53.232;8.252;2023-07-08T09:13:37;101805.09;;;31.67;35.18
58243;BME280;50118;53.232;8.252;2023-07-08T09:16:45;101806.97;;;31.93;36.11
58243;BME280;50118;53.232;8.252;2023-07-08T09:19:12;101804.59;;;31.20;36.01
58243;BME280;50118;53.232;8.252;2023-07-08T09:21:48;101813.84;;;32.28;34.52
58243;BME280;50118;53.232;8.252;2023-07-08T09:27:10;101804.53;;;30.32;39.38
58243;BME280;50118;53.232;8.252;2023-07-08T09:29:36;101801.06;;;30.98;35.08
58243;BME280;50118;53.232;8.252;2023-07-08T09:32:19;101802.56;;;29.76;37.60
58243;BME280;50118;53.232;8.252;2023-07-08T09:35:01;101801.06;;;30.37;37.12
58243;BME280;50118;53.232;8.252;2023-07-08T09:37:30;101793.94;;;31.83;34.96
58243;BME280;50118;53.232;8.252;2023-07-08T09:39:57;101799.50;;;31.89;33.77
58243;BME280;50118;53.232;8.252;2023-07-08T09:42:28;101791.09;;;31.46;34.92
58243;BME280;50118;53.232;8.252;2023-07-08T09:45:10;101804.06;;;30.96;35.22
58243;BME280;50118;53.232;8.252;2023-07-08T09:47:37;101795.50;;;30.53;35.43
58243;BME280;50118;53.232;8.252;2023-07-08T09:50:26;101797.03;;;30.10;36.28
58243;BME280;50118;53.232;8.252;2023-07-08T09:52:54;101786.53;;;30.80;35.85
58243;BME280;50118;53.232;8.252;2023-07-08T09:55:22;101790.75;;;31.64;34.87
58243;BME280;50118;53.232;8.252;2023-07-08T09:57:51;101787.31;;;32.12;36.08
58243;BME280;50118;53.232;8.252;2023-07-08T10:00:26;101797.19;;;30.99;37.38
58243;BME280;50118;53.232;8.252;2023-07-08T10:02:55;101791.97;;;31.79;34.98
58243;BME280;50118;53.232;8.252;2023-07-08T10:05:28;101785.88;;;32.52;33.13
58243;BME280;50118;53.232;8.252;2023-07-08T10:07:56;101789.28;;;30.80;37.24
58243;BME280;50118;53.232;8.252;2023-07-08T10:10:31;101788.25;;;31.95;34.97
58243;BME280;50118;53.232;8.252;2023-07-08T10:13:03;101784.38;;;31.32;34.36
58243;BME280;50118;53.232;8.252;2023-07-08T10:15:39;101788.59;;;30.73;37.07
58243;BME280;50118;53.232;8.252;2023-07-08T10:18:15;101794.84;;;30.63;36.89
58243;BME280;50118;53.232;8.252;2023-07-08T10:21:07;101789.84;;;31.86;35.71
58243;BME280;50118;53.232;8.252;2023-07-08T10:23:37;101782.75;;;31.95;34.59
58243;BME280;50118;53.232;8.252;2023-07-08T10:26:34;101779.44;;;32.31;33.96
58243;BME280;50118;53.232;8.252;2023-07-08T10:34:49;101785.38;;;31.80;34.29
58243;BME280;50118;53.232;8.252;2023-07-08T10:37:27;101771.41;;;31.54;34.55
58243;BME280;50118;53.232;8.252;2023-07-08T10:43:00;101781.31;;;32.73;33.83
58243;BME280;50118;53.232;8.252;2023-07-08T10:45:36;101770.38;;;31.98;33.50
58243;BME280;50118;53.232;8.252;2023-07-08T11:11:00;101765.25;;;33.48;30.32
58243;BME280;50118;53.232;8.252;2023-07-08T11:13:29;101764.63;;;33.10;31.54
58243;BME280;50118;53.232;8.252;2023-07-08T11:18:34;101762.38;;;33.02;31.58
58243;BME280;50118;53.232;8.252;2023-07-08T11:21:08;101754.59;;;32.79;32.37
58243;BME280;50118;53.232;8.252;2023-07-08T11:24:04;101747.69;;;32.76;33.03
58243;BME280;50118;53.232;8.252;2023-07-08T11:26:49;101747.38;;;32.72;32.90
58243;BME280;50118;53.232;8.252;2023-07-08T11:29:20;101749.22;;;33.50;32.57
58243;BME280;50118;53.232;8.252;2023-07-08T11:31:48;101745.88;;;34.05;32.72
58243;BME280;50118;53.232;8.252;2023-07-08T11:34:15;101754.22;;;33.79;31.51
58243;BME280;50118;53.232;8.252;2023-07-08T11:36:42;101749.63;;;34.55;29.86
58243;BME280;50118;53.232;8.252;2023-07-08T11:39:38;101745.56;;;34.27;30.39
58243;BME280;50118;53.232;8.252;2023-07-08T11:44:57;101746.72;;;34.26;30.39
58243;BME280;50118;53.232;8.252;2023-07-08T11:47:35;101737.91;;;33.52;31.65
58243;BME280;50118;53.232;8.252;2023-07-08T11:50:03;101743.16;;;33.90;31.25
58243;BME280;50118;53.232;8.252;2023-07-08T11:52:29;101739.28;;;33.39;32.01
58243;BME280;50118;53.232;8.252;2023-07-08T11:54:59;101737.34;;;33.60;31.99
58243;BME280;50118;53.232;8.252;2023-07-08T11:57:30;101727.31;;;32.92;32.37
58243;BME280;50118;53.232;8.252;2023-07-08T12:00:14;101714.44;;;33.34;33.38
58243;BME280;50118;53.232;8.252;2023-07-08T12:02:56;101728.00;;;34.63;30.57
58243;BME280;50118;53.232;8.252;2023-07-08T12:07:56;101724.34;;;33.56;30.16
58243;BME280;50118;53.232;8.252;2023-07-08T12:10:36;101716.03;;;33.04;31.66
58243;BME280;50118;53.232;8.252;2023-07-08T12:13:11;101720.44;;;34.13;29.32
58243;BME280;50118;53.232;8.252;2023-07-08T12:15:37;101707.22;;;33.95;30.04
58243;BME280;50118;53.232;8.252;2023-07-08T12:18:15;101707.59;;;34.53;29.37
58243;BME280;50118;53.232;8.252;2023-07-08T12:20:44;101711.72;;;35.06;28.06
58243;BME280;50118;53.232;8.252;2023-07-08T12:23:19;101692.63;;;33.38;30.11
58243;BME280;50118;53.232;8.252;2023-07-08T12:25:45;101710.50;;;34.22;28.27
58243;BME280;50118;53.232;8.252;2023-07-08T12:28:12;101715.34;;;34.51;27.74
58243;BME280;50118;53.232;8.252;2023-07-08T12:30:38;101714.44;;;33.80;29.12
58243;BME280;50118;53.232;8.252;2023-07-08T12:33:10;101706.59;;;34.23;29.63
58243;BME280;50118;53.232;8.252;2023-07-08T12:35:36;101703.72;;;32.49;30.50
58243;BME280;50118;53.232;8.252;2023-07-08T12:38:05;101704.75;;;33.42;29.11
58243;BME280;50118;53.232;8.252;2023-07-08T12:40:31;101692.88;;;33.82;28.14
58243;BME280;50118;53.232;8.252;2023-07-08T12:42:58;101694.25;;;34.66;28.62
58243;BME280;50118;53.232;8.252;2023-07-08T12:45:28;101697.06;;;34.60;29.30
58243;BME280;50118;53.232;8.252;2023-07-08T12:47:55;101693.69;;;33.83;28.12
58243;BME280;50118;53.232;8.252;2023-07-08T12:50:20;101695.56;;;34.08;28.48
58243;BME280;50118;53.232;8.252;2023-07-08T12:52:46;101695.28;;;34.80;26.46
58243;BME280;50118;53.232;8.252;2023-07-08T12:55:14;101688.81;;;35.00;26.35
58243;BME280;50118;53.232;8.252;2023-07-08T12:57:42;101686.78;;;35.50;25.79
58243;BME280;50118;53.232;8.252;2023-07-08T13:00:20;101683.13;;;35.21;25.21
58243;BME280;50118;53.232;8.252;2023-07-08T13:02:47;101686.47;;;34.78;27.07
58243;BME280;50118;53.232;8.252;2023-07-08T13:05:16;101685.69;;;35.12;26.68
58243;BME280;50118;53.232;8.252;2023-07-08T13:07:43;101686.69;;;34.32;26.60
58243;BME280;50118;53.232;8.252;2023-07-08T13:10:20;101684.75;;;34.87;24.81
58243;BME280;50118;53.232;8.252;2023-07-08T13:12:48;101683.50;;;33.83;26.35
58243;BME280;50118;53.232;8.252;2023-07-08T13:15:21;101685.16;;;34.60;26.08
58243;BME280;50118;53.232;8.252;2023-07-08T13:17:48;101678.69;;;34.80;26.14
58243;BME280;50118;53.232;8.252;2023-07-08T13:20:15;101674.34;;;35.08;25.64
58243;BME280;50118;53.232;8.252;2023-07-08T13:22:42;101671.91;;;33.50;26.27
58243;BME280;50118;53.232;8.252;2023-07-08T13:25:19;101669.44;;;34.50;26.02
58243;BME280;50118;53.232;8.252;2023-07-08T13:28:13;101670.44;;;35.14;25.71
58243;BME280;50118;53.232;8.252;2023-07-08T13:30:53;101667.09;;;35.52;22.76
58243;BME280;50118;53.232;8.252;2023-07-08T13:33:19;101669.41;;;35.05;25.03
58243;BME280;50118;53.232;8.252;2023-07-08T13:35:45;101658.53;;;35.14;24.21
58243;BME280;50118;53.232;8.252;2023-07-08T13:38:19;101666.63;;;33.80;27.10
58243;BME280;50118;53.232;8.252;2023-07-08T13:40:52;101671.13;;;34.46;24.01
58243;BME280;50118;53.232;8.252;2023-07-08T13:43:23;101663.75;;;34.81;23.84
58243;BME280;50118;53.232;8.252;2023-07-08T13:45:50;101661.03;;;34.11;24.40
58243;BME280;50118;53.232;8.252;2023-07-08T13:48:24;101670.13;;;34.16;25.07
58243;BME280;50118;53.232;8.252;2023-07-08T13:50:57;101670.00;;;34.47;24.86
58243;BME280;50118;53.232;8.252;2023-07-08T13:53:41;101666.00;;;34.03;25.23